Time;durP1;ratioP1;P1;durP2;ratioP2;P2;SDS_P1;SDS_P2;PMS_P1;PMS_P2;Temp;Humidity;BMP_temperature;BMP_pressure;BME280_temperature;BME280_humidity;BME280_pressure;Samples;Min_cycle;Max_cycle;Signal;HPM_P1;HPM_P2
2022/01/02 00:00:19;;;;;;;38.05;18.27;;;;;;;0.03;85.16;96944.44;10294758;28;97002;-73
2022/01/02 00:05:23;;;;;;;25.20;14.57;;;;;;;-0.05;85.17;96943.94;10293362;28;99544;-72
2022/01/02 00:10:27;;;;;;;24.38;13.65;;;;;;;-0.02;85.24;96941.25;10297822;28;98792;-72
2022/01/02 00:15:32;;;;;;;16.37;10.10;;;;;;;-0.04;85.27;96936.16;10293820;28;96709;-72
2022/01/02 00:20:46;;;;;;;12.85;8.15;;;;;;;-0.11;85.05;96937.34;10299154;28;96896;-72
2022/01/02 00:25:53;;;;;;;15.85;8.18;;;;;;;-0.24;85.12;96931.84;10296712;28;96764;-72
2022/01/02 00:30:59;;;;;;;19.98;10.65;;;;;;;-0.41;85.47;96935.13;10296429;28;99855;-73
2022/01/02 00:36:04;;;;;;;16.42;10.55;;;;;;;-0.40;85.61;96931.66;10294981;28;97028;-72
2022/01/02 00:41:07;;;;;;;;;;;;;;;-0.41;85.55;96940.25;10298677;28;97212;-73
2022/01/02 00:46:14;;;;;;;15.45;8.73;;;;;;;-0.42;85.22;96927.50;10296518;28;97167;-73
2022/01/02 00:51:27;;;;;;;17.27;9.60;;;;;;;-0.45;85.10;96918.19;10293228;28;96841;-72
2022/01/02 00:56:32;;;;;;;12.32;7.75;;;;;;;-0.47;85.58;96909.72;10298674;28;96755;-72
2022/01/02 01:01:37;;;;;;;11.93;7.10;;;;;;;-0.50;85.33;96925.25;10294924;28;99648;-72
2022/01/02 01:06:41;;;;;;;12.73;8.00;;;;;;;-0.55;84.97;96917.72;10293188;28;96917;-73
2022/01/02 01:11:45;;;;;;;16.20;8.40;;;;;;;-0.58;84.95;96911.88;10295939;28;96931;-72
2022/01/02 01:16:50;;;;;;;13.27;6.25;;;;;;;-0.50;85.14;96909.84;10295571;28;97005;-72
2022/01/02 01:21:53;;;;;;;11.13;7.60;;;;;;;-0.49;85.45;96916.66;10295775;28;96758;-72
2022/01/02 01:26:58;;;;;;;11.57;7.93;;;;;;;-0.57;85.38;96896.41;10278053;28;96937;-73
2022/01/02 01:32:03;;;;;;;12.55;8.23;;;;;;;-0.56;85.38;96899.84;10298040;28;96886;-72
2022/01/02 01:37:06;;;;;;;11.43;7.47;;;;;;;-0.64;85.57;96891.63;10294944;28;97037;-72
2022/01/02 01:42:11;;;;;;;9.45;5.93;;;;;;;-0.70;85.25;96900.41;10292165;28;97951;-73
2022/01/02 01:47:15;;;;;;;9.68;6.60;;;;;;;-0.75;85.63;96899.75;10296611;28;96724;-72
2022/01/02 01:52:18;;;;;;;8.93;6.00;;;;;;;-0.74;85.23;96901.41;10294455;28;96890;-73
2022/01/02 01:57:21;;;;;;;7.68;4.95;;;;;;;-0.73;85.11;96901.34;10288783;28;96896;-72
2022/01/02 02:02:27;;;;;;;10.00;6.47;;;;;;;-0.80;85.11;96897.38;10288990;28;96987;-73
2022/01/02 02:07:38;;;;;;;11.43;6.90;;;;;;;-0.87;85.60;96890.81;10293439;28;96794;-73
2022/01/02 02:12:43;;;;;;;14.98;9.40;;;;;;;-0.88;85.58;96889.13;10292399;28;96917;-73
2022/01/02 02:17:52;;;;;;;11.80;6.55;;;;;;;-0.83;85.93;96884.66;10293952;28;96742;-73
2022/01/02 02:22:58;;;;;;;10.45;6.57;;;;;;;-0.81;85.47;96874.34;10293268;28;96802;-73
2022/01/02 02:28:02;;;;;;;14.43;6.82;;;;;;;-0.84;85.69;96880.44;10293420;28;96878;-73
2022/01/02 02:33:07;;;;;;;10.33;6.33;;;;;;;-1.00;85.42;96869.13;10292172;28;99099;-73
2022/01/02 02:38:12;;;;;;;12.07;7.70;;;;;;;-1.08;85.33;96867.69;10294423;28;96860;-73
2022/01/02 02:43:26;;;;;;;14.32;6.82;;;;;;;-1.30;85.73;96880.50;10292512;28;96697;-73
2022/01/02 02:53:54;;;;;;;12.48;7.47;;;;;;;-1.13;85.50;96841.41;10291753;28;96776;-73
2022/01/02 02:58:58;;;;;;;9.05;6.15;;;;;;;-1.14;85.59;96842.28;10293723;28;96879;-73
2022/01/02 03:04:01;;;;;;;8.70;5.60;;;;;;;-1.19;86.05;96843.38;10292812;28;96873;-73
2022/01/02 03:09:08;;;;;;;10.48;6.38;;;;;;;-1.22;85.56;96841.78;10289641;28;98404;-74
2022/01/02 03:14:13;;;;;;;11.40;6.65;;;;;;;-1.36;86.30;96841.47;10294428;28;96822;-74
2022/01/02 03:19:16;;;;;;;10.10;6.47;;;;;;;-1.33;86.24;96851.59;10292201;28;100103;-73
2022/01/02 03:24:20;;;;;;;11.68;6.68;;;;;;;-1.30;85.73;96848.94;10289414;28;96871;-73
2022/01/02 03:29:23;;;;;;;9.38;5.82;;;;;;;-1.31;85.99;96834.44;10294735;28;97054;-74
2022/01/02 03:34:27;;;;;;;11.02;5.68;;;;;;;-1.30;85.63;96836.13;10299009;28;96844;-74
2022/01/02 03:39:31;;;;;;;12.73;7.22;;;;;;;-1.30;85.95;96830.97;10294080;28;99905;-74
2022/01/02 03:44:34;;;;;;;13.32;6.78;;;;;;;-1.49;86.22;96821.44;10301017;28;96977;-74
2022/01/02 03:49:37;;;;;;;10.85;6.63;;;;;;;-1.61;86.27;96819.34;10298322;28;97856;-74
2022/01/02 03:54:41;;;;;;;12.88;6.88;;;;;;;-1.46;86.42;96811.09;10296213;28;97860;-74
2022/01/02 03:59:45;;;;;;;10.20;6.68;;;;;;;-1.35;86.46;96804.69;10298391;28;96930;-74
2022/01/02 04:04:47;;;;;;;10.43;5.85;;;;;;;-1.36;85.64;96795.31;10297595;28;97056;-74
2022/01/02 04:09:52;;;;;;;11.40;6.32;;;;;;;-1.32;86.36;96802.84;10298057;28;96741;-74
2022/01/02 04:14:54;;;;;;;9.75;5.78;;;;;;;-1.36;86.22;96798.75;10280760;28;96756;-74
2022/01/02 04:19:57;;;;;;;11.48;6.22;;;;;;;-1.34;86.08;96798.69;10297250;28;98268;-74
2022/01/02 04:25:01;;;;;;;11.32;6.07;;;;;;;-1.28;86.04;96795.88;10297251;28;97032;-74
2022/01/02 04:30:07;;;;;;;10.25;5.50;;;;;;;-1.23;86.36;96782.88;10294044;28;97043;-74
2022/01/02 04:35:10;;;;;;;;;;;;;;;-1.22;86.47;96785.38;10298861;28;96830;-74
2022/01/02 04:40:14;;;;;;;9.10;4.97;;;;;;;-1.27;85.41;96798.38;10297104;28;96763;-74
2022/01/02 04:45:17;;;;;;;7.85;4.43;;;;;;;-1.32;85.61;96792.59;10293202;28;97073;-74
2022/01/02 04:50:20;;;;;;;11.60;5.50;;;;;;;-1.38;86.04;96795.38;10299519;28;97192;-74
2022/01/02 04:55:24;;;;;;;8.90;5.80;;;;;;;-1.40;86.24;96799.75;10296904;28;96924;-74
2022/01/02 05:00:27;;;;;;;10.02;5.90;;;;;;;-1.38;85.58;96797.13;10292636;28;96996;-74
2022/01/02 05:05:31;;;;;;;10.00;5.68;;;;;;;-1.43;85.69;96781.94;10298401;28;96826;-74
2022/01/02 05:10:36;;;;;;;10.43;5.50;;;;;;;-1.50;86.06;96791.59;10295398;28;96978;-74
2022/01/02 05:15:38;;;;;;;10.60;5.63;;;;;;;-1.66;86.07;96782.84;10293118;28;96906;-74
2022/01/02 05:20:44;;;;;;;10.68;6.03;;;;;;;-1.59;86.91;96763.75;10294924;28;98638;-74
2022/01/02 05:25:48;;;;;;;12.07;6.00;;;;;;;-1.48;86.66;96771.88;10295331;28;96863;-74
2022/01/02 05:30:52;;;;;;;12.60;5.83;;;;;;;-1.54;86.03;96776.41;10295117;28;96719;-74
2022/01/02 05:35:54;;;;;;;11.00;6.22;;;;;;;-1.44;86.51;96782.00;10308584;28;96747;-74
2022/01/02 05:40:59;;;;;;;10.85;4.95;;;;;;;-1.40;86.22;96774.13;10295125;28;96858;-74
2022/01/02 05:46:05;;;;;;;6.93;4.03;;;;;;;-1.50;86.73;96765.97;10294596;28;97049;-74
2022/01/02 05:51:08;;;;;;;7.80;4.05;;;;;;;-1.40;86.67;96780.97;10291841;28;96729;-75
2022/01/02 05:56:12;;;;;;;8.85;4.80;;;;;;;-1.42;85.89;96780.22;10298179;28;98348;-74
2022/01/02 06:01:15;;;;;;;14.07;6.00;;;;;;;-1.47;86.64;96770.13;10293533;28;97117;-74
2022/01/02 06:06:19;;;;;;;8.43;4.90;;;;;;;-1.62;86.66;96784.41;10290304;28;96806;-74
2022/01/02 06:11:23;;;;;;;11.73;5.78;;;;;;;-1.53;86.76;96778.91;10288127;28;96911;-75
2022/01/02 06:16:26;;;;;;;7.22;4.07;;;;;;;-1.43;86.26;96778.53;10293694;28;97116;-74
2022/01/02 06:21:29;;;;;;;7.40;4.90;;;;;;;-1.39;86.04;96785.22;10290054;28;96759;-74
2022/01/02 06:26:33;;;;;;;8.70;4.15;;;;;;;-1.53;86.83;96784.03;10295538;28;96790;-74
2022/01/02 06:31:36;;;;;;;6.90;3.55;;;;;;;-1.61;86.57;96777.53;10292745;28;97544;-74
2022/01/02 06:36:38;;;;;;;6.78;4.10;;;;;;;-1.30;87.82;96764.34;10291487;28;96887;-74
2022/01/02 06:41:43;;;;;;;6.28;3.60;;;;;;;-1.13;87.26;96767.03;10293876;28;96887;-75
2022/01/02 06:46:45;;;;;;;8.48;4.28;;;;;;;-1.00;86.76;96782.75;10293381;28;96906;-75
2022/01/02 06:51:48;;;;;;;13.52;5.40;;;;;;;-0.91;86.55;96776.41;10292472;28;96808;-75
2022/01/02 06:56:53;;;;;;;12.30;7.50;;;;;;;-0.84;87.02;96795.78;10291907;28;96727;-75
2022/01/02 07:01:56;;;;;;;18.73;9.35;;;;;;;-0.80;86.84;96796.50;10296303;28;96880;-74
2022/01/02 07:06:59;;;;;;;16.08;8.50;;;;;;;-0.81;86.54;96798.22;10299707;28;96886;-74
2022/01/02 07:12:04;;;;;;;11.43;6.38;;;;;;;-0.85;86.57;96791.53;10297834;28;96956;-74
2022/01/02 07:17:07;;;;;;;14.38;8.27;;;;;;;-0.82;86.91;96786.28;10300397;28;98709;-74
2022/01/02 07:22:09;;;;;;;11.20;6.72;;;;;;;-0.67;87.08;96801.94;10299136;28;96796;-75
2022/01/02 07:27:14;;;;;;;8.48;5.13;;;;;;;-0.70;87.01;96792.66;10295883;28;96734;-75
2022/01/02 07:32:17;;;;;;;10.15;5.50;;;;;;;-0.75;86.48;96795.41;10302073;28;96960;-74
2022/01/02 07:37:20;;;;;;;8.35;4.57;;;;;;;-0.77;87.27;96797.19;10299145;28;96890;-74
2022/01/02 07:42:24;;;;;;;8.23;5.00;;;;;;;-0.70;87.36;96802.91;10294039;28;97146;-74
2022/01/02 07:47:27;;;;;;;9.65;6.13;;;;;;;-0.68;87.11;96815.66;10301556;28;96917;-74
2022/01/02 07:52:30;;;;;;;8.70;5.40;;;;;;;-0.58;87.05;96809.22;10297614;28;96675;-75
2022/01/02 07:57:34;;;;;;;8.32;5.13;;;;;;;-0.42;86.93;96807.69;10294709;28;97743;-74
2022/01/02 08:02:37;;;;;;;5.95;4.03;;;;;;;-0.23;87.15;96801.72;10299280;28;96860;-74
2022/01/02 08:07:41;;;;;;;13.52;8.25;;;;;;;-0.15;86.76;96797.94;10297702;28;102216;-74
2022/01/02 08:12:45;;;;;;;10.52;5.93;;;;;;;-0.03;87.00;96813.69;10295501;28;97234;-74
2022/01/02 08:17:48;;;;;;;9.13;5.78;;;;;;;0.13;86.91;96826.69;10297457;28;97107;-74
2022/01/02 08:22:52;;;;;;;10.73;6.65;;;;;;;0.27;86.79;96813.22;10296546;28;98394;-74
2022/01/02 08:27:57;;;;;;;12.57;8.88;;;;;;;0.31;86.98;96836.13;10297472;28;102444;-74
2022/01/02 08:32:59;;;;;;;10.82;6.85;;;;;;;0.31;87.27;96831.00;10295269;28;97033;-74
2022/01/02 08:38:02;;;;;;;11.23;6.50;;;;;;;0.45;87.23;96838.06;10297494;28;100986;-74
2022/01/02 08:43:08;;;;;;;10.35;7.20;;;;;;;0.57;87.00;96852.09;10295725;28;96805;-74
2022/01/02 08:48:11;;;;;;;10.68;7.18;;;;;;;0.69;86.39;96832.69;10294518;28;98020;-74
2022/01/02 08:53:14;;;;;;;11.80;7.43;;;;;;;0.78;86.67;96845.13;10298716;28;96692;-74
2022/01/02 08:58:19;;;;;;;11.57;7.35;;;;;;;0.74;86.91;96859.88;10296267;28;96891;-74
2022/01/02 09:03:22;;;;;;;13.73;7.17;;;;;;;0.84;86.76;96873.09;10291343;28;96937;-73
2022/01/02 09:08:25;;;;;;;12.10;7.28;;;;;;;1.03;86.68;96865.34;10298814;28;96911;-74
2022/01/02 09:13:29;;;;;;;12.15;8.15;;;;;;;1.24;86.53;96876.34;10295756;28;96705;-73
2022/01/02 09:18:33;;;;;;;11.75;7.22;;;;;;;1.47;86.45;96875.22;10293376;28;96712;-74
2022/01/02 09:23:36;;;;;;;12.13;8.40;;;;;;;1.65;86.34;96867.50;10295537;28;96875;-73
2022/01/02 09:28:41;;;;;;;10.82;6.88;;;;;;;1.80;86.20;96871.00;10294992;28;96992;-74
2022/01/02 09:33:44;;;;;;;12.20;6.43;;;;;;;1.80;86.92;96866.72;10293010;28;96823;-73
2022/01/02 09:38:47;;;;;;;10.73;7.35;;;;;;;1.97;86.16;96854.69;10294327;28;97614;-73
2022/01/02 09:43:52;;;;;;;12.50;8.80;;;;;;;2.13;86.82;96864.13;10295134;28;97326;-73
2022/01/02 09:48:56;;;;;;;16.90;9.67;;;;;;;2.30;85.98;96862.41;10295048;28;96777;-73
2022/01/02 09:53:59;;;;;;;12.73;8.27;;;;;;;2.47;86.24;96902.78;10292289;28;96962;-74
2022/01/02 09:59:03;;;;;;;12.05;8.25;;;;;;;2.63;86.05;96903.63;10295437;28;96878;-74
2022/01/02 10:04:07;;;;;;;17.80;11.05;;;;;;;2.73;86.20;96897.97;10293693;28;96815;-73
2022/01/02 10:09:14;;;;;;;15.38;10.45;;;;;;;2.87;86.04;96895.47;10291571;28;97208;-74
2022/01/02 10:14:19;;;;;;;18.15;11.18;;;;;;;3.06;86.17;96898.69;10297227;28;96837;-74
2022/01/02 10:19:26;;;;;;;16.95;11.60;;;;;;;3.14;86.38;96889.69;10293627;28;98062;-73
2022/01/02 10:24:32;;;;;;;17.35;11.23;;;;;;;3.27;85.86;96898.41;10288884;28;96792;-74
2022/01/02 10:29:50;;;;;;;18.52;12.23;;;;;;;3.36;85.99;96885.00;10295447;28;98811;-73
2022/01/02 10:35:06;;;;;;;15.93;11.43;;;;;;;3.50;86.34;96873.00;10295028;28;96748;-73
2022/01/02 10:40:28;;;;;;;15.35;10.55;;;;;;;3.70;85.72;96869.28;10292665;28;96816;-74
2022/01/02 10:45:38;;;;;;;16.88;11.32;;;;;;;3.90;85.17;96881.88;10289901;28;96791;-74
2022/01/02 10:50:59;;;;;;;13.48;10.13;;;;;;;4.05;84.74;96864.59;10293552;28;97633;-74
2022/01/02 10:56:03;;;;;;;18.67;13.25;;;;;;;4.11;85.20;96864.25;10295615;28;96814;-73
2022/01/02 11:01:08;;;;;;;19.17;13.17;;;;;;;4.29;85.61;96856.28;10293325;28;97185;-74
2022/01/02 11:06:13;;;;;;;18.40;10.73;;;;;;;4.56;85.17;96846.81;10289300;28;99510;-74
2022/01/02 11:11:16;;;;;;;;;;;;;;;4.88;85.37;96849.13;10295568;28;96883;-74
2022/01/02 11:16:20;;;;;;;15.93;9.82;;;;;;;5.15;84.65;96835.38;10291413;28;96895;-74
2022/01/02 11:21:28;;;;;;;12.83;8.70;;;;;;;5.47;84.17;96832.41;10288024;28;96899;-74
2022/01/02 11:26:40;;;;;;;12.20;8.52;;;;;;;5.68;83.48;96838.75;10294405;28;96695;-74
2022/01/02 11:31:50;;;;;;;13.85;9.73;;;;;;;5.74;83.10;96836.69;10292099;28;96763;-74
2022/01/02 11:36:54;;;;;;;12.23;8.37;;;;;;;5.84;82.73;96822.16;10291882;28;96731;-74
2022/01/02 11:41:58;;;;;;;13.75;8.38;;;;;;;5.93;82.37;96800.81;10274380;28;96945;-74
2022/01/02 11:47:02;;;;;;;10.93;7.13;;;;;;;6.02;81.31;96805.34;10295665;28;96820;-74
2022/01/02 11:52:13;;;;;;;7.47;5.63;;;;;;;6.09;80.54;96803.19;10298620;28;97919;-74
2022/01/02 11:57:55;;;;;;;9.32;6.35;;;;;;;6.23;80.11;96797.03;10294908;28;96868;-74
2022/01/02 12:03:00;;;;;;;10.77;7.25;;;;;;;6.29;80.98;96801.78;10280226;28;96906;-74
2022/01/02 12:08:05;;;;;;;10.93;7.45;;;;;;;6.35;80.79;96806.56;10298022;28;96833;-73
2022/01/02 12:13:17;;;;;;;;;;;;;;;6.44;80.56;96774.75;10298410;28;96786;-73
2022/01/02 12:18:25;;;;;;;8.00;5.40;;;;;;;6.58;80.09;96772.94;10293559;28;96897;-74
2022/01/02 12:23:53;;;;;;;9.40;5.28;;;;;;;6.67;79.04;96764.50;10292692;28;96824;-74
2022/01/02 12:28:58;;;;;;;11.20;6.00;;;;;;;6.74;79.22;96770.06;10297599;28;96945;-74
2022/01/02 12:34:09;;;;;;;;;;;;;;;6.75;80.53;96772.56;10296895;28;97341;-74
2022/01/02 12:39:14;;;;;;;7.97;5.53;;;;;;;6.85;79.46;96763.16;10294199;28;96831;-74
2022/01/02 12:44:26;;;;;;;9.20;6.28;;;;;;;7.01;79.61;96746.50;10300334;28;96875;-74
2022/01/02 12:49:33;;;;;;;9.82;5.70;;;;;;;7.13;78.74;96744.75;10295820;28;96806;-74
2022/01/02 12:54:39;;;;;;;8.38;5.95;;;;;;;7.17;78.95;96736.59;10293299;28;96852;-74
2022/01/02 12:59:43;;;;;;;9.30;5.78;;;;;;;7.24;78.92;96733.56;10296239;28;100036;-74
2022/01/02 13:04:49;;;;;;;7.88;5.50;;;;;;;7.30;78.70;96735.69;10294892;28;98326;-74
2022/01/02 13:09:53;;;;;;;5.95;3.92;;;;;;;7.35;78.19;96729.22;10296077;28;96777;-74
2022/01/02 13:14:58;;;;;;;5.47;3.92;;;;;;;7.40;77.85;96714.06;10279241;28;97176;-74
2022/01/02 13:20:06;;;;;;;6.40;4.77;;;;;;;7.52;76.77;96711.50;10298388;28;97090;-74
2022/01/02 13:25:12;;;;;;;7.10;5.50;;;;;;;7.63;76.59;96715.88;10295300;28;96799;-74
2022/01/02 13:30:17;;;;;;;6.45;4.63;;;;;;;7.66;76.79;96715.66;10291372;28;96755;-74
2022/01/02 13:35:24;;;;;;;9.73;6.78;;;;;;;7.68;76.81;96705.94;10299280;28;96862;-74
2022/01/02 13:40:34;;;;;;;6.63;5.00;;;;;;;7.68;76.37;96700.75;10295121;28;96711;-74
2022/01/02 13:45:39;;;;;;;6.97;4.95;;;;;;;7.78;75.80;96710.31;10292528;28;97041;-74
2022/01/02 13:50:46;;;;;;;4.95;3.80;;;;;;;7.84;75.71;96703.84;10294521;28;97051;-74
2022/01/02 13:55:51;;;;;;;4.45;3.03;;;;;;;7.97;73.45;96694.09;10294379;28;96803;-73
2022/01/02 14:00:56;;;;;;;4.63;2.95;;;;;;;8.06;72.97;96694.34;10293990;28;96766;-74
2022/01/02 14:06:03;;;;;;;3.55;2.50;;;;;;;8.10;72.17;96698.34;10277555;28;96929;-74
2022/01/02 14:11:11;;;;;;;3.05;2.40;;;;;;;8.19;71.66;96702.84;10295038;28;96720;-74
2022/01/02 14:16:31;;;;;;;2.85;1.92;;;;;;;8.13;71.50;96698.09;10293356;28;96770;-74
2022/01/02 14:21:35;;;;;;;3.47;2.30;;;;;;;8.01;72.54;96704.28;10291092;28;96695;-74
2022/01/02 14:26:38;;;;;;;3.93;2.50;;;;;;;8.06;70.59;96704.75;10295714;28;96887;-73
2022/01/02 14:31:42;;;;;;;5.68;2.63;;;;;;;8.16;70.41;96695.25;10292511;28;98398;-74
2022/01/02 14:36:47;;;;;;;6.83;3.93;;;;;;;8.26;70.08;96697.97;10291479;28;96956;-74
2022/01/02 14:41:51;;;;;;;8.07;5.50;;;;;;;8.23;70.58;96677.38;10292062;28;96700;-73
2022/01/02 14:46:54;;;;;;;8.70;5.27;;;;;;;8.11;71.40;96689.59;10294853;28;96700;-74
2022/01/02 14:51:58;;;;;;;10.35;7.00;;;;;;;8.02;71.36;96691.16;10292985;28;96855;-74
2022/01/02 14:57:02;;;;;;;15.13;9.40;;;;;;;7.90;71.57;96708.53;10290909;28;97146;-74
2022/01/02 15:02:08;;;;;;;14.85;8.75;;;;;;;7.80;72.41;96710.19;10294416;28;97234;-74
2022/01/02 15:07:13;;;;;;;15.70;9.65;;;;;;;7.70;72.79;96707.50;10292930;28;96835;-75
2022/01/02 15:12:16;;;;;;;14.50;9.27;;;;;;;7.60;73.00;96702.16;10289054;28;96739;-74
2022/01/02 15:17:18;;;;;;;17.80;10.73;;;;;;;7.53;72.97;96688.00;10296050;28;96971;-74
2022/01/02 15:22:23;;;;;;;16.58;11.18;;;;;;;7.39;74.10;96707.25;10296341;28;102178;-74
2022/01/02 15:27:26;;;;;;;14.83;9.73;;;;;;;7.33;73.89;96699.88;10294522;28;97362;-74
2022/01/02 15:32:33;;;;;;;12.73;8.48;;;;;;;7.35;73.98;96702.38;10300917;28;96716;-74
2022/01/02 15:37:39;;;;;;;10.27;6.97;;;;;;;7.34;73.72;96705.94;10298633;28;96731;-74
2022/01/02 15:42:42;;;;;;;12.68;7.68;;;;;;;7.34;74.10;96695.53;10296848;28;96928;-74
2022/01/02 15:47:48;;;;;;;13.57;8.90;;;;;;;7.29;74.07;96708.06;10298978;28;96922;-74
2022/01/02 15:52:54;;;;;;;14.32;9.85;;;;;;;7.26;74.08;96708.28;10298744;28;99741;-74
2022/01/02 15:57:57;;;;;;;17.35;10.68;;;;;;;7.19;74.65;96708.72;10298312;28;98942;-74
2022/01/02 16:03:02;;;;;;;13.95;8.20;;;;;;;7.15;74.12;96701.31;10295484;28;100066;-74
2022/01/02 16:08:07;;;;;;;11.70;6.85;;;;;;;7.12;74.06;96709.31;10299992;28;96888;-74
2022/01/02 16:13:09;;;;;;;10.68;7.18;;;;;;;7.05;74.25;96727.13;10297706;28;96746;-74
2022/01/02 16:18:14;;;;;;;13.95;8.30;;;;;;;6.89;74.29;96721.41;10295013;28;96764;-74
2022/01/02 16:23:18;;;;;;;13.90;8.07;;;;;;;6.92;74.61;96739.31;10299050;28;96944;-74
2022/01/02 16:28:21;;;;;;;11.03;7.33;;;;;;;6.84;75.08;96748.50;10296267;28;96846;-74
2022/01/02 16:33:24;;;;;;;9.77;6.80;;;;;;;6.85;75.13;96757.97;10292718;28;96914;-74
2022/01/02 16:38:29;;;;;;;9.38;6.18;;;;;;;6.89;74.92;96757.75;10300029;28;96746;-74
2022/01/02 16:43:32;;;;;;;9.67;5.63;;;;;;;6.90;74.58;96754.19;10297259;28;99735;-74
2022/01/02 16:48:35;;;;;;;10.15;6.22;;;;;;;6.93;73.99;96746.19;10293902;28;96751;-74
2022/01/02 16:53:39;;;;;;;11.27;7.20;;;;;;;6.95;74.70;96763.31;10298489;28;96851;-74
2022/01/02 16:58:45;;;;;;;9.60;6.23;;;;;;;6.87;74.29;96759.59;10297700;28;97315;-74
2022/01/02 17:03:49;;;;;;;9.85;5.75;;;;;;;6.82;74.61;96746.97;10295279;28;99637;-74
2022/01/02 17:08:53;;;;;;;7.85;5.00;;;;;;;6.68;75.39;96760.13;10295344;28;97204;-74
2022/01/02 17:13:57;;;;;;;7.70;4.93;;;;;;;6.69;75.18;96752.22;10294424;28;96846;-74
2022/01/02 17:19:01;;;;;;;8.13;4.60;;;;;;;6.56;75.75;96767.03;10295514;28;96890;-74
2022/01/02 17:24:05;;;;;;;7.85;4.70;;;;;;;6.60;75.10;96763.28;10292828;28;97090;-74
2022/01/02 17:29:08;;;;;;;8.18;4.25;;;;;;;6.53;75.72;96773.25;10299367;28;96720;-74
2022/01/02 17:34:12;;;;;;;4.72;3.70;;;;;;;6.58;74.38;96765.16;10294662;28;96682;-74
2022/01/02 17:39:16;;;;;;;5.45;3.90;;;;;;;6.77;73.39;96744.72;10291717;28;96700;-74
2022/01/02 17:44:19;;;;;;;6.73;4.13;;;;;;;6.83;73.23;96759.84;10297432;28;96841;-74
2022/01/02 17:49:22;;;;;;;6.75;4.35;;;;;;;6.87;72.67;96746.63;10295445;28;96929;-74
2022/01/02 17:54:27;;;;;;;7.68;5.85;;;;;;;6.93;72.11;96766.97;10290073;28;97396;-74
2022/01/02 17:59:30;;;;;;;5.75;4.28;;;;;;;7.05;70.89;96779.09;10296692;28;96781;-74
2022/01/02 18:04:34;;;;;;;7.10;3.92;;;;;;;7.21;69.73;96761.44;10292593;28;96843;-74
2022/01/02 18:09:45;;;;;;;4.55;3.03;;;;;;;7.39;68.30;96782.63;10291356;28;102331;-74
2022/01/02 18:14:50;;;;;;;4.40;3.08;;;;;;;7.57;68.06;96784.78;10294373;28;97029;-74
2022/01/02 18:19:53;;;;;;;4.72;2.92;;;;;;;7.57;68.25;96798.59;10292838;28;96742;-74
2022/01/02 18:24:58;;;;;;;3.97;2.47;;;;;;;7.45;69.23;96791.72;10293942;28;97151;-74
2022/01/02 18:30:01;;;;;;;;;;;;;;;7.45;69.50;96776.13;10292251;28;97320;-74
2022/01/02 18:35:07;;;;;;;3.72;2.80;;;;;;;7.36;70.31;96782.03;10294765;28;96893;-74
2022/01/02 18:40:15;;;;;;;3.47;2.53;;;;;;;7.16;71.76;96760.09;10294166;28;97199;-74
2022/01/02 18:45:18;;;;;;;3.20;2.08;;;;;;;7.13;71.12;96794.13;10289557;28;96800;-74
2022/01/02 18:50:21;;;;;;;3.53;2.00;;;;;;;7.11;71.41;96793.38;10296496;28;97344;-74
2022/01/02 18:55:26;;;;;;;3.30;2.13;;;;;;;7.25;70.39;96789.78;10291941;28;96865;-74
2022/01/02 19:00:29;;;;;;;3.67;2.37;;;;;;;7.35;68.97;96796.78;10289977;28;96895;-74
2022/01/02 19:05:33;;;;;;;4.75;2.50;;;;;;;7.34;68.54;96802.09;10294535;28;97113;-74
2022/01/02 19:10:38;;;;;;;4.20;2.17;;;;;;;7.29;68.03;96812.00;10292227;28;96737;-74
2022/01/02 19:15:41;;;;;;;3.28;2.20;;;;;;;7.28;67.62;96815.53;10290707;28;96887;-74
2022/01/02 19:20:44;;;;;;;4.22;2.63;;;;;;;7.47;66.77;96815.81;10292748;28;97038;-74
2022/01/02 19:25:48;;;;;;;3.92;2.60;;;;;;;7.38;68.01;96821.72;10291822;28;97096;-74
2022/01/02 19:30:51;;;;;;;7.72;4.28;;;;;;;7.43;66.82;96819.59;10292230;28;96781;-74
2022/01/02 19:35:54;;;;;;;3.65;2.63;;;;;;;7.41;68.27;96826.69;10291214;28;96668;-74
2022/01/02 19:40:58;;;;;;;3.53;2.50;;;;;;;7.47;68.08;96831.44;10292201;28;96835;-74
2022/01/02 19:46:01;;;;;;;5.00;2.85;;;;;;;7.48;67.83;96833.09;10290877;28;96957;-74
2022/01/02 19:51:03;;;;;;;7.78;4.20;;;;;;;7.54;66.43;96843.03;10289863;28;97055;-74
2022/01/02 19:56:08;;;;;;;4.50;2.75;;;;;;;7.71;65.70;96843.56;10292045;28;96772;-74
2022/01/02 20:01:11;;;;;;;4.03;2.77;;;;;;;7.94;65.21;96842.66;10290917;28;96773;-74
2022/01/02 20:06:14;;;;;;;7.05;3.58;;;;;;;8.11;64.46;96840.53;10289557;28;96810;-74
2022/01/02 20:11:19;;;;;;;9.00;4.47;;;;;;;8.13;64.31;96844.69;10300572;28;96826;-74
2022/01/02 20:16:22;;;;;;;8.43;4.18;;;;;;;8.09;65.01;96842.41;10297608;28;96966;-75
2022/01/02 20:21:25;;;;;;;5.95;3.40;;;;;;;8.08;63.79;96853.75;10294253;28;97017;-74
2022/01/02 20:26:30;;;;;;;4.57;2.83;;;;;;;7.93;64.68;96841.00;10300304;28;97809;-74
2022/01/02 20:31:37;;;;;;;4.60;3.05;;;;;;;7.84;65.78;96849.50;10296603;28;96756;-75
2022/01/02 20:36:40;;;;;;;4.55;2.53;;;;;;;7.73;65.27;96845.06;10293996;28;97095;-74
2022/01/02 20:41:45;;;;;;;4.90;2.72;;;;;;;7.61;65.98;96851.19;10297639;28;96952;-74
2022/01/02 20:46:48;;;;;;;5.27;3.13;;;;;;;7.75;65.45;96870.97;10296577;28;96993;-74
2022/01/02 20:51:51;;;;;;;6.13;3.58;;;;;;;7.91;64.15;96874.09;10296667;28;96675;-74
2022/01/02 20:56:56;;;;;;;8.55;3.85;;;;;;;8.00;64.63;96863.94;10294913;28;96726;-74
2022/01/02 21:01:58;;;;;;;5.57;3.43;;;;;;;8.09;65.17;96871.03;10296305;28;96811;-75
2022/01/02 21:07:02;;;;;;;4.63;2.63;;;;;;;8.06;65.55;96868.66;10295828;28;96862;-74
2022/01/02 21:12:06;;;;;;;3.58;2.28;;;;;;;7.98;66.42;96872.69;10295147;28;96889;-74
2022/01/02 21:17:11;;;;;;;4.78;2.67;;;;;;;8.05;65.78;96867.00;10296468;28;96790;-74
2022/01/02 21:22:15;;;;;;;3.00;1.77;;;;;;;8.59;64.16;96871.53;10295316;28;96732;-74
2022/01/02 21:27:19;;;;;;;5.15;2.53;;;;;;;8.99;62.31;96875.38;10291035;28;97031;-74
2022/01/02 21:32:22;;;;;;;5.53;2.83;;;;;;;9.10;62.15;96880.53;10298299;28;96878;-75
2022/01/02 21:37:26;;;;;;;3.17;1.90;;;;;;;9.33;61.90;96875.25;10295123;28;96851;-74
2022/01/02 21:42:31;;;;;;;3.58;1.80;;;;;;;9.55;62.79;96875.19;10291419;28;96813;-75
2022/01/02 21:47:34;;;;;;;5.68;1.75;;;;;;;9.76;63.20;96890.03;10296969;28;96697;-75
2022/01/02 21:52:37;;;;;;;7.65;3.80;;;;;;;10.00;62.97;96874.94;10295735;28;96780;-74
2022/01/02 21:57:41;;;;;;;3.75;1.73;;;;;;;10.18;63.05;96877.81;10292406;28;96947;-75
2022/01/02 22:02:46;;;;;;;6.55;2.30;;;;;;;10.18;63.04;96876.97;10295772;28;96938;-74
2022/01/02 22:07:50;;;;;;;4.53;1.83;;;;;;;10.27;63.17;96896.25;10294560;28;96805;-74
2022/01/02 22:12:54;;;;;;;4.82;1.73;;;;;;;10.32;62.88;96901.91;10293882;28;97308;-75
2022/01/02 22:17:57;;;;;;;6.35;3.20;;;;;;;10.33;63.02;96890.53;10275675;28;96723;-74
2022/01/02 22:23:02;;;;;;;7.72;3.42;;;;;;;10.20;63.53;96896.78;10294194;28;97236;-74
2022/01/02 22:28:06;;;;;;;;;;;;;;;10.14;63.54;96897.28;10293687;28;96940;-75
2022/01/02 22:33:13;;;;;;;3.75;1.90;;;;;;;10.02;63.91;96906.16;10291059;28;97130;-74
2022/01/02 22:38:17;;;;;;;5.57;1.50;;;;;;;10.04;64.02;96891.19;10296402;28;96682;-74
2022/01/02 22:43:21;;;;;;;4.90;1.97;;;;;;;10.18;63.49;96892.63;10292959;28;96883;-75
2022/01/02 22:48:32;;;;;;;3.73;1.60;;;;;;;10.20;63.10;96899.41;10289388;28;96949;-74
2022/01/02 22:53:35;;;;;;;4.55;1.80;;;;;;;10.22;63.29;96900.09;10296085;28;96762;-74
2022/01/02 22:58:42;;;;;;;4.03;1.90;;;;;;;10.11;63.99;96892.31;10292289;28;96881;-75
2022/01/02 23:03:46;;;;;;;4.40;2.10;;;;;;;9.91;64.41;96890.56;10290693;28;96947;-74
2022/01/02 23:08:53;;;;;;;3.43;2.13;;;;;;;9.74;64.14;96889.34;10291816;28;97032;-74
2022/01/02 23:13:58;;;;;;;5.32;2.05;;;;;;;9.58;64.02;96895.00;10294476;28;96811;-75
2022/01/02 23:19:04;;;;;;;5.50;2.30;;;;;;;9.50;64.66;96876.53;10292294;28;96859;-74
2022/01/02 23:24:07;;;;;;;4.15;2.40;;;;;;;9.36;65.24;96881.06;10289760;28;96984;-75
2022/01/02 23:29:33;;;;;;;3.33;1.95;;;;;;;9.18;65.97;96903.41;10288367;28;96802;-74
2022/01/02 23:34:37;;;;;;;5.88;2.05;;;;;;;9.10;65.94;96902.22;10291774;28;96765;-74
2022/01/02 23:39:41;;;;;;;5.88;2.47;;;;;;;9.08;65.83;96878.06;10289862;28;96870;-75
2022/01/02 23:44:46;;;;;;;3.97;1.40;;;;;;;9.26;65.19;96859.28;10299396;28;96874;-74